sensor_id;sensor_type;location;lat;lon;timestamp;pressure;altitude;pressure_sealevel;temperature;humidity
9229;BME280;4649;42.644;23.284;2023-05-02T05:32:36;93371.59;;;16.02;57.52
9229;BME280;4649;42.644;23.284;2023-05-02T05:35:23;93258.63;;;14.35;61.65
9229;BME280;4649;42.644;23.284;2023-05-02T05:43:32;93318.38;;;17.10;53.18
9229;BME280;4649;42.644;23.284;2023-05-02T05:46:34;93339.13;;;16.17;55.57
9229;BME280;4649;42.644;23.284;2023-05-02T06:07:33;93399.31;;;17.70;52.99
9229;BME280;4649;42.644;23.284;2023-05-02T06:10:08;93356.25;;;16.93;52.71
9229;BME280;4649;42.644;23.284;2023-05-02T06:12:39;93383.28;;;16.52;53.20
9229;BME280;4649;42.644;23.284;2023-05-02T06:15:20;93278.31;;;17.25;48.96
9229;BME280;4649;42.644;23.284;2023-05-02T06:17:55;93311.81;;;17.98;48.52
9229;BME280;4649;42.644;23.284;2023-05-02T06:23:58;93410.22;;;17.06;50.30
9229;BME280;4649;42.644;23.284;2023-05-02T06:26:36;93476.81;;;16.77;54.96
9229;BME280;4649;42.644;23.284;2023-05-02T06:29:24;93359.06;;;16.31;53.58
9229;BME280;4649;42.644;23.284;2023-05-02T06:32:18;93432.47;;;17.67;50.24
9229;BME280;4649;42.644;23.284;2023-05-02T06:41:04;93282.66;;;15.94;51.17
9229;BME280;4649;42.644;23.284;2023-05-02T06:46:45;93469.41;;;16.59;53.28
9229;BME280;4649;42.644;23.284;2023-05-02T06:49:48;93488.97;;;16.26;54.88
9229;BME280;4649;42.644;23.284;2023-05-02T06:59:05;93483.09;;;17.47;51.36
9229;BME280;4649;42.644;23.284;2023-05-02T07:07:43;93375.22;;;16.60;50.39
9229;BME280;4649;42.644;23.284;2023-05-02T07:10:26;93298.28;;;16.25;50.04
9229;BME280;4649;42.644;23.284;2023-05-02T07:13:20;93484.47;;;17.67;48.61
9229;BME280;4649;42.644;23.284;2023-05-02T07:16:13;93426.72;;;17.13;49.52
9229;BME280;4649;42.644;23.284;2023-05-02T07:18:55;93497.63;;;17.55;47.72
9229;BME280;4649;42.644;23.284;2023-05-02T07:21:31;93274.63;;;16.14;48.26
9229;BME280;4649;42.644;23.284;2023-05-02T07:23:59;93294.91;;;15.87;49.26
9229;BME280;4649;42.644;23.284;2023-05-02T07:26:30;93281.16;;;15.93;49.50
9229;BME280;4649;42.644;23.284;2023-05-02T07:34:52;93404.41;;;16.52;48.98
9229;BME280;4649;42.644;23.284;2023-05-02T07:37:38;93257.78;;;16.42;46.94
9229;BME280;4649;42.644;23.284;2023-05-02T07:40:11;93432.25;;;17.26;46.20
9229;BME280;4649;42.644;23.284;2023-05-02T07:42:56;93412.03;;;16.72;47.47
9229;BME280;4649;42.644;23.284;2023-05-02T07:45:40;93492.34;;;17.31;47.33
9229;BME280;4649;42.644;23.284;2023-05-02T07:48:28;93372.72;;;16.75;47.82
9229;BME280;4649;42.644;23.284;2023-05-02T07:51:22;93438.66;;;17.28;46.43
9229;BME280;4649;42.644;23.284;2023-05-02T07:53:55;93325.81;;;16.58;47.34
9229;BME280;4649;42.644;23.284;2023-05-02T07:56:29;93496.88;;;18.78;45.33
9229;BME280;4649;42.644;23.284;2023-05-02T07:59:00;93383.38;;;17.17;45.55
9229;BME280;4649;42.644;23.284;2023-05-02T08:01:36;93361.44;;;17.35;45.82
9229;BME280;4649;42.644;23.284;2023-05-02T08:04:18;93304.84;;;17.30;44.49
9229;BME280;4649;42.644;23.284;2023-05-02T08:10:04;93422.44;;;17.05;47.91
9229;BME280;4649;42.644;23.284;2023-05-02T08:12:55;93360.38;;;17.25;46.06
9229;BME280;4649;42.644;23.284;2023-05-02T08:15:53;93498.41;;;17.69;46.22
9229;BME280;4649;42.644;23.284;2023-05-02T08:18:25;93367.59;;;16.84;46.91
9229;BME280;4649;42.644;23.284;2023-05-02T08:21:07;93481.03;;;17.66;46.98
9229;BME280;4649;42.644;23.284;2023-05-02T08:24:03;93489.50;;;18.40;45.87
9229;BME280;4649;42.644;23.284;2023-05-02T08:26:47;93428.72;;;18.29;45.23
9229;BME280;4649;42.644;23.284;2023-05-02T08:29:29;93497.69;;;18.53;44.44
9229;BME280;4649;42.644;23.284;2023-05-02T08:32:18;93371.41;;;18.51;44.00
9229;BME280;4649;42.644;23.284;2023-05-02T08:35:02;93494.47;;;18.95;42.84
9229;BME280;4649;42.644;23.284;2023-05-02T08:37:53;93417.88;;;18.10;44.31
9229;BME280;4649;42.644;23.284;2023-05-02T08:40:35;93448.78;;;17.33;46.29
9229;BME280;4649;42.644;23.284;2023-05-02T08:46:27;93319.88;;;17.11;45.61
9229;BME280;4649;42.644;23.284;2023-05-02T08:49:16;93318.69;;;18.25;43.95
9229;BME280;4649;42.644;23.284;2023-05-02T08:52:05;93477.88;;;19.61;41.64
9229;BME280;4649;42.644;23.284;2023-05-02T08:54:49;93483.00;;;18.96;42.66
9229;BME280;4649;42.644;23.284;2023-05-02T08:57:36;93292.97;;;17.94;42.67
9229;BME280;4649;42.644;23.284;2023-05-02T09:00:11;93359.41;;;18.82;41.64
9229;BME280;4649;42.644;23.284;2023-05-02T09:06:31;93485.25;;;19.94;39.58
9229;BME280;4649;42.644;23.284;2023-05-02T09:09:03;93407.38;;;19.29;40.25
9229;BME280;4649;42.644;23.284;2023-05-02T09:11:45;93369.00;;;17.29;43.35
9229;BME280;4649;42.644;23.284;2023-05-02T09:14:16;93293.03;;;16.97;43.21
9229;BME280;4649;42.644;23.284;2023-05-02T09:16:45;93355.31;;;17.55;44.58
9229;BME280;4649;42.644;23.284;2023-05-02T09:19:24;93472.06;;;19.04;43.06
9229;BME280;4649;42.644;23.284;2023-05-02T09:22:11;93472.38;;;19.34;41.92
9229;BME280;4649;42.644;23.284;2023-05-02T09:25:13;93480.84;;;19.43;41.88
9229;BME280;4649;42.644;23.284;2023-05-02T09:28:17;93474.00;;;18.76;41.84
9229;BME280;4649;42.644;23.284;2023-05-02T09:30:50;93391.56;;;18.20;41.86
9229;BME280;4649;42.644;23.284;2023-05-02T09:33:48;93358.66;;;17.74;43.06
9229;BME280;4649;42.644;23.284;2023-05-02T09:36:18;93321.63;;;17.60;41.55
9229;BME280;4649;42.644;23.284;2023-05-02T09:45:36;93301.88;;;15.52;46.63
9229;BME280;4649;42.644;23.284;2023-05-02T09:48:13;93368.28;;;16.59;45.80
9229;BME280;4649;42.644;23.284;2023-05-02T09:50:56;93350.88;;;16.88;45.51
9229;BME280;4649;42.644;23.284;2023-05-02T09:53:32;93374.50;;;17.29;44.26
9229;BME280;4649;42.644;23.284;2023-05-02T09:56:12;93461.41;;;18.01;43.58
9229;BME280;4649;42.644;23.284;2023-05-02T09:58:40;93261.91;;;16.61;43.37
9229;BME280;4649;42.644;23.284;2023-05-02T10:01:20;93342.81;;;17.21;43.28
9229;BME280;4649;42.644;23.284;2023-05-02T10:04:00;93268.31;;;16.50;42.67
9229;BME280;4649;42.644;23.284;2023-05-02T10:06:38;93326.91;;;16.94;43.17
9229;BME280;4649;42.644;23.284;2023-05-02T10:09:13;93356.41;;;17.26;43.72
9229;BME280;4649;42.644;23.284;2023-05-02T10:11:45;93446.63;;;18.17;43.17
9229;BME280;4649;42.644;23.284;2023-05-02T10:14:22;93314.28;;;17.42;42.14
9229;BME280;4649;42.644;23.284;2023-05-02T10:17:18;93411.41;;;18.33;41.31
9229;BME280;4649;42.644;23.284;2023-05-02T10:20:17;93423.97;;;18.62;41.16
9229;BME280;4649;42.644;23.284;2023-05-02T10:22:58;93428.13;;;18.76;40.02
9229;BME280;4649;42.644;23.284;2023-05-02T10:28:09;93415.28;;;19.12;38.99
9229;BME280;4649;42.644;23.284;2023-05-02T10:31:00;93337.09;;;18.78;38.48
9229;BME280;4649;42.644;23.284;2023-05-02T10:40:12;93365.91;;;19.12;37.38
9229;BME280;4649;42.644;23.284;2023-05-02T10:42:45;93405.81;;;19.76;37.29
9229;BME280;4649;42.644;23.284;2023-05-02T10:45:33;93405.25;;;20.05;35.99
9229;BME280;4649;42.644;23.284;2023-05-02T10:48:31;93227.72;;;18.74;36.50
9229;BME280;4649;42.644;23.284;2023-05-02T10:51:27;93408.19;;;20.00;35.99
9229;BME280;4649;42.644;23.284;2023-05-02T10:54:40;93342.44;;;19.74;35.18
9229;BME280;4649;42.644;23.284;2023-05-02T11:13:48;93380.59;;;20.20;34.75
9229;BME280;4649;42.644;23.284;2023-05-02T11:17:05;93361.72;;;20.24;33.39
9229;BME280;4649;42.644;23.284;2023-05-02T11:22:43;93385.03;;;20.38;33.26
9229;BME280;4649;42.644;23.284;2023-05-02T11:25:47;93369.06;;;20.36;33.12
9229;BME280;4649;42.644;23.284;2023-05-02T11:38:19;93266.41;;;18.91;35.38
9229;BME280;4649;42.644;23.284;2023-05-02T11:40:54;93167.78;;;18.78;34.56
9229;BME280;4649;42.644;23.284;2023-05-02T11:44:02;93358.41;;;20.25;33.81
9229;BME280;4649;42.644;23.284;2023-05-02T11:46:45;93266.22;;;19.59;34.17
9229;BME280;4649;42.644;23.284;2023-05-02T11:49:31;93326.13;;;19.68;34.76
9229;BME280;4649;42.644;23.284;2023-05-02T11:52:03;93356.03;;;19.16;36.49
9229;BME280;4649;42.644;23.284;2023-05-02T12:04:43;93345.22;;;19.46;36.63
9229;BME280;4649;42.644;23.284;2023-05-02T12:07:35;93238.94;;;18.56;35.72
9229;BME280;4649;42.644;23.284;2023-05-02T12:10:55;93347.97;;;19.11;36.70
9229;BME280;4649;42.644;23.284;2023-05-02T12:13:26;93325.41;;;19.33;36.20
9229;BME280;4649;42.644;23.284;2023-05-02T12:16:08;93289.53;;;18.75;36.21
9229;BME280;4649;42.644;23.284;2023-05-02T12:22:45;93323.94;;;18.56;36.81
9229;BME280;4649;42.644;23.284;2023-05-02T12:25:49;93279.16;;;18.61;36.39
9229;BME280;4649;42.644;23.284;2023-05-02T12:28:26;93268.16;;;18.53;36.80
9229;BME280;4649;42.644;23.284;2023-05-02T12:34:38;93237.03;;;18.71;36.51
9229;BME280;4649;42.644;23.284;2023-05-02T12:50:18;93242.59;;;19.14;35.32
9229;BME280;4649;42.644;23.284;2023-05-02T12:53:53;93201.06;;;18.82;36.37
9229;BME280;4649;42.644;23.284;2023-05-02T12:57:22;93243.91;;;18.85;36.03
9229;BME280;4649;42.644;23.284;2023-05-02T13:00:09;93276.94;;;19.35;34.71
9229;BME280;4649;42.644;23.284;2023-05-02T13:02:56;93209.13;;;18.80;35.67
9229;BME280;4649;42.644;23.284;2023-05-02T13:08:59;93243.38;;;18.38;36.20
9229;BME280;4649;42.644;23.284;2023-05-02T13:11:55;93077.22;;;16.99;36.80
9229;BME280;4649;42.644;23.284;2023-05-02T13:14:30;93113.97;;;17.23;36.52
9229;BME280;4649;42.644;23.284;2023-05-02T13:17:37;93093.19;;;17.41;36.31
9229;BME280;4649;42.644;23.284;2023-05-02T13:20:24;93223.53;;;18.25;36.42
9229;BME280;4649;42.644;23.284;2023-05-02T13:23:25;93126.78;;;17.28;36.68
9229;BME280;4649;42.644;23.284;2023-05-02T13:26:28;93146.16;;;17.30;36.62
9229;BME280;4649;42.644;23.284;2023-05-02T13:32:10;93165.41;;;17.58;37.24
9229;BME280;4649;42.644;23.284;2023-05-02T13:38:09;93168.28;;;17.53;36.86
9229;BME280;4649;42.644;23.284;2023-05-02T13:41:09;93161.66;;;17.89;36.45
9229;BME280;4649;42.644;23.284;2023-05-02T13:43:58;93176.00;;;17.41;36.25
9229;BME280;4649;42.644;23.284;2023-05-02T13:46:40;93141.31;;;17.23;36.62
9229;BME280;4649;42.644;23.284;2023-05-02T13:49:23;93108.19;;;17.14;36.05
9229;BME280;4649;42.644;23.284;2023-05-02T13:52:14;93244.38;;;18.08;36.16
9229;BME280;4649;42.644;23.284;2023-05-02T13:55:11;93114.81;;;17.31;36.23
9229;BME280;4649;42.644;23.284;2023-05-02T13:57:54;93290.34;;;18.42;36.06
9229;BME280;4649;42.644;23.284;2023-05-02T14:01:25;93300.66;;;18.29;35.77
9229;BME280;4649;42.644;23.284;2023-05-02T14:04:14;93136.63;;;17.11;35.81
9229;BME280;4649;42.644;23.284;2023-05-02T14:07:16;93260.66;;;17.93;35.72
9229;BME280;4649;42.644;23.284;2023-05-02T14:09:45;93204.63;;;17.40;36.16
9229;BME280;4649;42.644;23.284;2023-05-02T14:12:13;93129.53;;;16.82;35.90
9229;BME280;4649;42.644;23.284;2023-05-02T14:14:40;93220.75;;;17.84;35.74
9229;BME280;4649;42.644;23.284;2023-05-02T14:17:08;93215.16;;;17.70;35.99
9229;BME280;4649;42.644;23.284;2023-05-02T14:19:35;93100.59;;;16.53;35.78
9229;BME280;4649;42.644;23.284;2023-05-02T14:22:02;93110.75;;;17.12;36.06
9229;BME280;4649;42.644;23.284;2023-05-02T14:24:43;93292.41;;;18.09;35.87
9229;BME280;4649;42.644;23.284;2023-05-02T14:27:11;93073.69;;;16.91;35.87
9229;BME280;4649;42.644;23.284;2023-05-02T14:29:42;93176.91;;;17.57;35.66
9229;BME280;4649;42.644;23.284;2023-05-02T14:32:10;93298.97;;;18.26;36.04
9229;BME280;4649;42.644;23.284;2023-05-02T14:34:37;93112.31;;;17.08;35.78
9229;BME280;4649;42.644;23.284;2023-05-02T14:37:06;93162.69;;;17.25;35.81
9229;BME280;4649;42.644;23.284;2023-05-02T14:39:35;93292.13;;;17.99;35.54
9229;BME280;4649;42.644;23.284;2023-05-02T14:42:06;93269.72;;;17.88;35.32
9229;BME280;4649;42.644;23.284;2023-05-02T14:44:33;93127.06;;;17.05;35.08
9229;BME280;4649;42.644;23.284;2023-05-02T14:47:04;93179.44;;;17.08;35.51
9229;BME280;4649;42.644;23.284;2023-05-02T14:49:32;93215.94;;;17.57;35.65
9229;BME280;4649;42.644;23.284;2023-05-02T14:52:01;93082.59;;;16.58;35.30
9229;BME280;4649;42.644;23.284;2023-05-02T14:54:28;93315.91;;;18.04;35.42
9229;BME280;4649;42.644;23.284;2023-05-02T14:56:58;93076.56;;;16.26;35.71
9229;BME280;4649;42.644;23.284;2023-05-02T14:59:45;93140.16;;;16.86;35.91
9229;BME280;4649;42.644;23.284;2023-05-02T15:02:17;93248.00;;;17.36;35.92
9229;BME280;4649;42.644;23.284;2023-05-02T15:04:58;93230.59;;;17.47;36.27
9229;BME280;4649;42.644;23.284;2023-05-02T15:07:28;93263.44;;;17.80;35.88
9229;BME280;4649;42.644;23.284;2023-05-02T15:10:01;93304.88;;;17.97;35.72
9229;BME280;4649;42.644;23.284;2023-05-02T15:12:30;93221.53;;;17.06;36.62
9229;BME280;4649;42.644;23.284;2023-05-02T15:15:14;93307.34;;;17.87;36.32
9229;BME280;4649;42.644;23.284;2023-05-02T15:17:43;93247.59;;;17.66;36.17
9229;BME280;4649;42.644;23.284;2023-05-02T15:20:12;93072.56;;;16.40;35.85
9229;BME280;4649;42.644;23.284;2023-05-02T15:22:54;93230.34;;;17.24;36.26
9229;BME280;4649;42.644;23.284;2023-05-02T15:25:30;93187.47;;;16.81;36.44
9229;BME280;4649;42.644;23.284;2023-05-02T15:28:03;93279.97;;;17.54;36.57
9229;BME280;4649;42.644;23.284;2023-05-02T15:30:49;93179.16;;;16.86;35.92
9229;BME280;4649;42.644;23.284;2023-05-02T15:33:19;93200.50;;;17.01;36.05
9229;BME280;4649;42.644;23.284;2023-05-02T15:35:52;93168.56;;;16.83;36.08
9229;BME280;4649;42.644;23.284;2023-05-02T15:38:23;93191.84;;;17.09;35.56
9229;BME280;4649;42.644;23.284;2023-05-02T15:40:55;93262.19;;;17.22;35.28
9229;BME280;4649;42.644;23.284;2023-05-02T15:43:25;93272.38;;;17.47;35.27
9229;BME280;4649;42.644;23.284;2023-05-02T15:55:17;93236.63;;;17.19;35.36
9229;BME280;4649;42.644;23.284;2023-05-02T15:57:46;93175.59;;;16.78;35.74
9229;BME280;4649;42.644;23.284;2023-05-02T16:00:19;93138.13;;;16.40;35.29
9229;BME280;4649;42.644;23.284;2023-05-02T16:03:01;93220.25;;;16.94;34.98
9229;BME280;4649;42.644;23.284;2023-05-02T16:05:43;93148.94;;;16.46;35.68
9229;BME280;4649;42.644;23.284;2023-05-02T16:08:12;93169.22;;;16.50;35.84
9229;BME280;4649;42.644;23.284;2023-05-02T16:14:08;93257.38;;;17.15;35.51
9229;BME280;4649;42.644;23.284;2023-05-02T16:16:45;93269.81;;;17.03;36.33
9229;BME280;4649;42.644;23.284;2023-05-02T16:19:25;93184.13;;;16.36;35.99
9229;BME280;4649;42.644;23.284;2023-05-02T16:21:58;93070.00;;;15.65;36.36
9229;BME280;4649;42.644;23.284;2023-05-02T16:24:39;93170.63;;;16.12;36.69
9229;BME280;4649;42.644;23.284;2023-05-02T16:27:22;93289.03;;;16.85;36.60
9229;BME280;4649;42.644;23.284;2023-05-02T16:33:14;93116.59;;;15.67;37.63
9229;BME280;4649;42.644;23.284;2023-05-02T16:35:42;93194.03;;;15.95;37.75
9229;BME280;4649;42.644;23.284;2023-05-02T16:38:18;93277.25;;;16.64;37.82
9229;BME280;4649;42.644;23.284;2023-05-02T16:40:48;93305.09;;;16.49;37.58
9229;BME280;4649;42.644;23.284;2023-05-02T16:43:17;93276.38;;;16.43;37.45
9229;BME280;4649;42.644;23.284;2023-05-02T16:45:44;93278.50;;;16.50;37.34
9229;BME280;4649;42.644;23.284;2023-05-02T16:48:16;93289.44;;;16.50;37.83
9229;BME280;4649;42.644;23.284;2023-05-02T16:50:49;93158.88;;;15.60;37.87
9229;BME280;4649;42.644;23.284;2023-05-02T16:53:16;93116.88;;;15.19;37.92
9229;BME280;4649;42.644;23.284;2023-05-02T16:55:46;93074.78;;;14.83;37.77
9229;BME280;4649;42.644;23.284;2023-05-02T16:58:14;93179.28;;;15.41;38.02
9229;BME280;4649;42.644;23.284;2023-05-02T17:00:43;93210.28;;;15.56;37.93
9229;BME280;4649;42.644;23.284;2023-05-02T17:03:12;93203.09;;;15.40;37.75
9229;BME280;4649;42.644;23.284;2023-05-02T17:06:01;93085.25;;;14.79;38.50
9229;BME280;4649;42.644;23.284;2023-05-02T17:08:31;93271.19;;;15.95;38.38
9229;BME280;4649;42.644;23.284;2023-05-02T17:10:58;93299.59;;;16.05;38.57
9229;BME280;4649;42.644;23.284;2023-05-02T17:13:25;93317.75;;;16.03;38.48
9229;BME280;4649;42.644;23.284;2023-05-02T17:15:59;93302.91;;;15.98;39.11
9229;BME280;4649;42.644;23.284;2023-05-02T17:18:28;93184.22;;;15.06;39.11
9229;BME280;4649;42.644;23.284;2023-05-02T17:27:36;93265.00;;;15.27;39.26
9229;BME280;4649;42.644;23.284;2023-05-02T17:32:33;93284.84;;;15.46;39.69
9229;BME280;4649;42.644;23.284;2023-05-02T17:35:06;93318.44;;;15.54;39.92
9229;BME280;4649;42.644;23.284;2023-05-02T17:37:36;93206.63;;;14.80;39.97
9229;BME280;4649;42.644;23.284;2023-05-02T17:40:06;93161.06;;;14.39;40.11
9229;BME280;4649;42.644;23.284;2023-05-02T17:42:34;93357.00;;;15.45;39.74
9229;BME280;4649;42.644;23.284;2023-05-02T17:45:02;93309.16;;;15.44;39.80
9229;BME280;4649;42.644;23.284;2023-05-02T17:47:32;93185.22;;;14.48;40.15
9229;BME280;4649;42.644;23.284;2023-05-02T17:49:58;93314.53;;;15.31;40.03
9229;BME280;4649;42.644;23.284;2023-05-02T17:52:28;93255.00;;;14.74;40.18
9229;BME280;4649;42.644;23.284;2023-05-02T17:54:57;93231.72;;;14.73;40.58
9229;BME280;4649;42.644;23.284;2023-05-02T17:57:24;93125.91;;;13.93;40.78
9229;BME280;4649;42.644;23.284;2023-05-02T17:59:53;93313.19;;;15.19;40.62
9229;BME280;4649;42.644;23.284;2023-05-02T18:02:22;93283.06;;;14.88;40.98
9229;BME280;4649;42.644;23.284;2023-05-02T18:04:54;93181.03;;;14.23;41.20
9229;BME280;4649;42.644;23.284;2023-05-02T18:07:43;93325.91;;;15.11;41.32
9229;BME280;4649;42.644;23.284;2023-05-02T18:10:24;93333.06;;;15.14;41.49
9229;BME280;4649;42.644;23.284;2023-05-02T18:12:52;93327.22;;;15.05;41.92
9229;BME280;4649;42.644;23.284;2023-05-02T18:15:28;93328.75;;;15.00;41.67
9229;BME280;4649;42.644;23.284;2023-05-02T18:17:56;93318.47;;;14.88;42.19
9229;BME280;4649;42.644;23.284;2023-05-02T18:20:24;93186.47;;;13.99;43.87
9229;BME280;4649;42.644;23.284;2023-05-02T18:22:51;93307.31;;;14.91;42.41
9229;BME280;4649;42.644;23.284;2023-05-02T18:25:23;93253.69;;;14.57;42.71
9229;BME280;4649;42.644;23.284;2023-05-02T18:27:51;93335.75;;;14.96;43.10
9229;BME280;4649;42.644;23.284;2023-05-02T18:30:19;93344.28;;;14.87;43.43
9229;BME280;4649;42.644;23.284;2023-05-02T18:32:52;93236.56;;;14.38;43.04
9229;BME280;4649;42.644;23.284;2023-05-02T18:35:21;93356.75;;;14.77;42.87
9229;BME280;4649;42.644;23.284;2023-05-02T18:41:20;93141.94;;;13.43;43.47
9229;BME280;4649;42.644;23.284;2023-05-02T19:00:36;93252.72;;;13.72;42.99
9229;BME280;4649;42.644;23.284;2023-05-02T19:03:04;93321.47;;;14.37;42.44
9229;BME280;4649;42.644;23.284;2023-05-02T19:05:31;93228.66;;;13.82;42.78
9229;BME280;4649;42.644;23.284;2023-05-02T19:07:59;93231.06;;;13.91;43.05
9229;BME280;4649;42.644;23.284;2023-05-02T19:10:27;93121.41;;;13.19;41.80
9229;BME280;4649;42.644;23.284;2023-05-02T19:13:00;93350.22;;;14.62;41.72
9229;BME280;4649;42.644;23.284;2023-05-02T19:15:27;93298.56;;;14.27;42.04
9229;BME280;4649;42.644;23.284;2023-05-02T19:17:56;93228.66;;;13.82;42.18
9229;BME280;4649;42.644;23.284;2023-05-02T19:20:26;93276.25;;;13.99;42.08
9229;BME280;4649;42.644;23.284;2023-05-02T19:22:53;93353.94;;;14.59;42.20
9229;BME280;4649;42.644;23.284;2023-05-02T19:25:22;93346.47;;;14.64;41.96
9229;BME280;4649;42.644;23.284;2023-05-02T19:27:49;93275.97;;;14.08;42.12
9229;BME280;4649;42.644;23.284;2023-05-02T19:30:16;93335.28;;;14.44;42.41
9229;BME280;4649;42.644;23.284;2023-05-02T19:32:47;93280.38;;;14.11;41.95
9229;BME280;4649;42.644;23.284;2023-05-02T19:35:19;93344.09;;;14.56;42.65
9229;BME280;4649;42.644;23.284;2023-05-02T19:37:49;93260.59;;;14.05;42.83
9229;BME280;4649;42.644;23.284;2023-05-02T19:40:17;93263.66;;;13.96;42.36
9229;BME280;4649;42.644;23.284;2023-05-02T19:42:44;93229.69;;;13.73;42.08
9229;BME280;4649;42.644;23.284;2023-05-02T19:45:11;93132.03;;;13.17;42.16
9229;BME280;4649;42.644;23.284;2023-05-02T19:47:43;93336.16;;;14.58;42.12
9229;BME280;4649;42.644;23.284;2023-05-02T19:50:11;93346.09;;;14.50;42.36
9229;BME280;4649;42.644;23.284;2023-05-02T19:52:42;93355.56;;;14.49;43.30
9229;BME280;4649;42.644;23.284;2023-05-02T19:55:09;93359.97;;;14.52;42.65
9229;BME280;4649;42.644;23.284;2023-05-02T19:57:36;93218.22;;;13.56;43.12
9229;BME280;4649;42.644;23.284;2023-05-02T20:00:06;93217.69;;;13.63;43.37
9229;BME280;4649;42.644;23.284;2023-05-02T20:02:39;93283.97;;;13.95;43.65
9229;BME280;4649;42.644;23.284;2023-05-02T20:05:08;93188.78;;;13.26;43.85
9229;BME280;4649;42.644;23.284;2023-05-02T20:07:45;93339.16;;;14.25;43.78
9229;BME280;4649;42.644;23.284;2023-05-02T20:10:12;93105.81;;;12.90;43.95
9229;BME280;4649;42.644;23.284;2023-05-02T20:12:43;93165.25;;;13.34;44.20
9229;BME280;4649;42.644;23.284;2023-05-02T20:15:26;93332.03;;;14.22;44.19
9229;BME280;4649;42.644;23.284;2023-05-02T20:17:54;93110.34;;;12.71;44.48
9229;BME280;4649;42.644;23.284;2023-05-02T20:20:27;93331.59;;;14.12;44.81
9229;BME280;4649;42.644;23.284;2023-05-02T20:23:19;93219.81;;;13.41;44.99
9229;BME280;4649;42.644;23.284;2023-05-02T20:26:05;93311.50;;;13.86;45.09
9229;BME280;4649;42.644;23.284;2023-05-02T20:28:33;93260.06;;;13.48;45.62
9229;BME280;4649;42.644;23.284;2023-05-02T20:31:03;93121.38;;;12.44;45.63
9229;BME280;4649;42.644;23.284;2023-05-02T20:33:42;93313.66;;;13.93;45.82
9229;BME280;4649;42.644;23.284;2023-05-02T20:36:09;93245.22;;;13.49;46.31
9229;BME280;4649;42.644;23.284;2023-05-02T20:38:41;93190.44;;;13.05;45.92
9229;BME280;4649;42.644;23.284;2023-05-02T20:41:09;93121.56;;;12.51;46.69
9229;BME280;4649;42.644;23.284;2023-05-02T20:43:40;93251.28;;;13.31;46.51
9229;BME280;4649;42.644;23.284;2023-05-02T20:46:09;93110.22;;;12.47;47.58
9229;BME280;4649;42.644;23.284;2023-05-02T20:48:37;93132.44;;;12.46;47.27
9229;BME280;4649;42.644;23.284;2023-05-02T20:51:07;93249.31;;;13.26;47.17
9229;BME280;4649;42.644;23.284;2023-05-02T20:53:35;93321.31;;;13.60;47.76
9229;BME280;4649;42.644;23.284;2023-05-02T20:56:08;93207.34;;;12.76;47.98
9229;BME280;4649;42.644;23.284;2023-05-02T20:58:39;93213.16;;;13.02;47.23
9229;BME280;4649;42.644;23.284;2023-05-02T21:01:15;93292.97;;;13.79;47.52
9229;BME280;4649;42.644;23.284;2023-05-02T21:03:44;93109.44;;;12.52;47.50
9229;BME280;4649;42.644;23.284;2023-05-02T21:06:36;93295.94;;;13.81;48.11
9229;BME280;4649;42.644;23.284;2023-05-02T21:09:05;93174.75;;;12.76;48.02
9229;BME280;4649;42.644;23.284;2023-05-02T21:11:36;93235.44;;;13.35;48.21
9229;BME280;4649;42.644;23.284;2023-05-02T21:14:05;93097.91;;;12.41;48.51
9229;BME280;4649;42.644;23.284;2023-05-02T21:16:36;93319.84;;;13.53;49.34
9229;BME280;4649;42.644;23.284;2023-05-02T21:19:03;93139.81;;;12.51;48.60
9229;BME280;4649;42.644;23.284;2023-05-02T21:21:31;93185.41;;;12.69;49.22
9229;BME280;4649;42.644;23.284;2023-05-02T21:24:01;93154.16;;;12.51;49.17
9229;BME280;4649;42.644;23.284;2023-05-02T21:26:31;93115.53;;;12.23;48.85
9229;BME280;4649;42.644;23.284;2023-05-02T21:29:06;93224.16;;;12.69;49.26
9229;BME280;4649;42.644;23.284;2023-05-02T21:31:43;93179.03;;;12.61;49.01
9229;BME280;4649;42.644;23.284;2023-05-02T21:34:12;93126.22;;;12.00;49.56
9229;BME280;4649;42.644;23.284;2023-05-02T21:36:57;93277.97;;;12.65;50.26
9229;BME280;4649;42.644;23.284;2023-05-02T21:39:39;93202.34;;;12.29;50.72
9229;BME280;4649;42.644;23.284;2023-05-02T21:42:24;93202.38;;;12.23;51.38
9229;BME280;4649;42.644;23.284;2023-05-02T21:45:10;93369.03;;;12.99;51.78
9229;BME280;4649;42.644;23.284;2023-05-02T21:47:41;93320.88;;;12.94;52.22
9229;BME280;4649;42.644;23.284;2023-05-02T21:50:18;93215.19;;;12.17;52.06
9229;BME280;4649;42.644;23.284;2023-05-02T21:52:47;93345.59;;;12.96;52.37
9229;BME280;4649;42.644;23.284;2023-05-02T21:55:16;93348.31;;;12.96;52.86
9229;BME280;4649;42.644;23.284;2023-05-02T21:57:53;93129.03;;;11.61;52.48
9229;BME280;4649;42.644;23.284;2023-05-02T22:00:27;93245.75;;;12.34;52.91
9229;BME280;4649;42.644;23.284;2023-05-02T22:02:54;93320.84;;;13.05;52.87
9229;BME280;4649;42.644;23.284;2023-05-02T22:05:34;93282.47;;;12.52;52.97
9229;BME280;4649;42.644;23.284;2023-05-02T22:11:05;93122.63;;;11.37;53.58
9229;BME280;4649;42.644;23.284;2023-05-02T22:14:05;93240.34;;;12.23;53.47
9229;BME280;4649;42.644;23.284;2023-05-02T22:20:10;93131.50;;;11.43;53.55
9229;BME280;4649;42.644;23.284;2023-05-02T22:22:50;93140.88;;;11.37;53.87
9229;BME280;4649;42.644;23.284;2023-05-02T22:25:21;93239.66;;;11.96;53.98
9229;BME280;4649;42.644;23.284;2023-05-02T22:33:34;93335.25;;;12.67;54.00
9229;BME280;4649;42.644;23.284;2023-05-02T22:39:35;93334.97;;;12.76;54.03
9229;BME280;4649;42.644;23.284;2023-05-02T22:42:25;93250.22;;;12.21;53.85
9229;BME280;4649;42.644;23.284;2023-05-02T22:45:09;93106.88;;;11.36;53.21
9229;BME280;4649;42.644;23.284;2023-05-02T22:48:12;93127.56;;;11.33;53.84
9229;BME280;4649;42.644;23.284;2023-05-02T22:53:17;93164.03;;;11.54;53.60
9229;BME280;4649;42.644;23.284;2023-05-02T23:12:36;93254.63;;;12.29;52.57
9229;BME280;4649;42.644;23.284;2023-05-02T23:15:44;93205.91;;;11.64;52.70
9229;BME280;4649;42.644;23.284;2023-05-02T23:18:17;93246.06;;;12.04;52.53
9229;BME280;4649;42.644;23.284;2023-05-02T23:21:12;93325.72;;;12.22;53.88
9229;BME280;4649;42.644;23.284;2023-05-02T23:27:30;93114.75;;;10.63;54.00
